Annada, Missouri
Current Conditions -  °F | °C
As of 9:35 AM on Friday 28 Nov 2014 (Local Time) from KPPQ Reporting Station
Clear Clear  
Wind Chill: 24°   Ceiling: Unl
Heat Index: 32°   Visibility: NA
Dew Point: 28°   Wind: 10mph
Humidity: 83%   Direction: 150°SSE
Pressure: 30.12"   Gusts: NA
Location:  39.26°N, 90.83°W
Report Text: KPPQ 281535Z AUTO 15009KT CLR 00/M02 A3012 RMK AO2 T00001025 PWINO
Loading
Personal Weather Stations






























Interactive Weather Map New forecast layout! Learn more

10-Day Weather Forecast

Advertisements
Track Severe Weather on mobile